createdAt,value
2022-11-29T00:01:04.565Z,92403.97
2022-11-29T00:03:32.301Z,92401.59
2022-11-29T00:06:05.540Z,92395.28
2022-11-29T00:08:32.071Z,92404.28
2022-11-29T00:11:04.069Z,92391.00
2022-11-29T00:13:30.590Z,92401.91
2022-11-29T00:16:02.134Z,92400.31
2022-11-29T00:18:28.566Z,92400.09
2022-11-29T00:20:55.009Z,92400.31
2022-11-29T00:23:21.502Z,92401.44
2022-11-29T00:25:47.958Z,92399.84
2022-11-29T00:28:14.391Z,92409.00
2022-11-29T00:30:40.869Z,92408.47
2022-11-29T00:33:07.475Z,92399.94
2022-11-29T00:35:33.903Z,92408.06
2022-11-29T00:38:00.428Z,92402.47
2022-11-29T00:40:26.901Z,92396.31
2022-11-29T00:42:53.439Z,92400.00
2022-11-29T00:45:19.928Z,92405.53
2022-11-29T00:47:46.367Z,92401.69
2022-11-29T00:50:12.804Z,92407.13
2022-11-29T00:52:39.205Z,92403.47
2022-11-29T00:55:06.214Z,92403.47
2022-11-29T00:57:32.706Z,92397.50
2022-11-29T00:59:59.125Z,92403.16
2022-11-29T01:02:25.859Z,92404.50
2022-11-29T01:04:52.356Z,92400.31
2022-11-29T01:07:18.841Z,92395.13
2022-11-29T01:09:45.302Z,92403.97
2022-11-29T01:12:11.827Z,92408.84
2022-11-29T01:14:38.362Z,92399.38
2022-11-29T01:17:04.839Z,92408.72
2022-11-29T01:19:31.437Z,92403.41
2022-11-29T01:21:57.889Z,92413.25
2022-11-29T01:24:24.425Z,92409.88
2022-11-29T01:26:50.912Z,92404.59
2022-11-29T01:29:17.383Z,92403.09
2022-11-29T01:31:43.876Z,92409.63
2022-11-29T01:34:10.654Z,92401.75
2022-11-29T01:36:37.152Z,92396.41
2022-11-29T01:39:05.847Z,92402.06
2022-11-29T01:41:34.615Z,92404.09
2022-11-29T01:44:27.953Z,92401.44
2022-11-29T01:46:55.059Z,92391.88
2022-11-29T01:49:21.455Z,92390.53
2022-11-29T01:51:55.428Z,92399.63
2022-11-29T01:54:22.606Z,92403.00
2022-11-29T01:56:51.688Z,92397.03
2022-11-29T01:59:21.888Z,92396.69
2022-11-29T02:01:48.407Z,92398.28
2022-11-29T02:04:16.097Z,92403.47
2022-11-29T02:06:43.267Z,92404.88
2022-11-29T02:09:21.062Z,92407.47
2022-11-29T02:12:17.043Z,92404.31
2022-11-29T02:15:37.669Z,92400.69
2022-11-29T02:18:12.093Z,92390.19
2022-11-29T02:20:56.930Z,92395.25
2022-11-29T02:23:39.432Z,92395.94
2022-11-29T02:26:34.206Z,92391.91
2022-11-29T02:29:27.092Z,92395.75
2022-11-29T02:32:19.609Z,92398.34
2022-11-29T02:34:52.102Z,92392.25
2022-11-29T02:37:33.724Z,92395.31
2022-11-29T02:40:18.310Z,92399.88
2022-11-29T02:43:22.322Z,92397.63
2022-11-29T02:45:54.588Z,92391.63
2022-11-29T02:48:37.600Z,92392.09
2022-11-29T02:51:17.800Z,92398.88
2022-11-29T02:53:53.766Z,92391.06
2022-11-29T02:56:49.619Z,92403.50
2022-11-29T02:59:22.569Z,92403.50
2022-11-29T03:02:02.488Z,92405.56
2022-11-29T03:04:33.246Z,92403.44
2022-11-29T03:07:19.104Z,92400.72
2022-11-29T03:10:04.873Z,92407.41
2022-11-29T03:12:36.636Z,92408.97
2022-11-29T03:15:36.149Z,92406.28
2022-11-29T03:18:33.359Z,92420.75
2022-11-29T03:21:24.428Z,92415.56
2022-11-29T03:23:58.733Z,92415.00
2022-11-29T03:26:45.616Z,92417.16
2022-11-29T03:29:20.709Z,92422.81
2022-11-29T03:32:03.569Z,92423.59
2022-11-29T03:34:53.022Z,92423.06
2022-11-29T03:37:50.121Z,92429.81
2022-11-29T03:40:25.242Z,92434.47
2022-11-29T03:43:00.020Z,92440.22
2022-11-29T03:45:38.650Z,92441.81
2022-11-29T03:48:16.519Z,92437.63
2022-11-29T03:50:56.759Z,92441.47
2022-11-29T03:53:29.114Z,92443.16
2022-11-29T03:55:59.969Z,92453.22
2022-11-29T03:58:56.960Z,92457.53
2022-11-29T04:01:46.614Z,92455.38
2022-11-29T04:04:28.061Z,92455.84
2022-11-29T04:07:13.298Z,92459.66
2022-11-29T04:10:04.548Z,92452.66
2022-11-29T04:13:08.341Z,92457.75
2022-11-29T04:16:03.027Z,92453.81
2022-11-29T04:18:44.852Z,92457.84
2022-11-29T04:21:42.254Z,92462.72
2022-11-29T04:24:21.023Z,92452.34
2022-11-29T04:27:21.434Z,92458.75
2022-11-29T04:30:03.581Z,92463.84
2022-11-29T04:33:04.552Z,92468.34
2022-11-29T04:35:43.113Z,92470.47
2022-11-29T04:38:16.848Z,92470.25
2022-11-29T04:41:05.980Z,92469.34
2022-11-29T04:43:47.340Z,92465.72
2022-11-29T04:46:26.899Z,92474.53
2022-11-29T04:49:21.929Z,92476.13
2022-11-29T04:52:13.040Z,92477.28
2022-11-29T04:55:20.794Z,92485.28
2022-11-29T04:58:16.410Z,92483.59
2022-11-29T05:00:56.048Z,92480.19
2022-11-29T05:03:41.430Z,92479.63
2022-11-29T05:06:14.031Z,92484.81
2022-11-29T05:09:05.189Z,92491.78
2022-11-29T05:11:47.622Z,92494.06
2022-11-29T05:14:35.855Z,92479.50
2022-11-29T05:17:39.759Z,92487.84
2022-11-29T05:20:34.083Z,92484.25
2022-11-29T05:23:42.140Z,92488.72
2022-11-29T05:26:19.576Z,92489.16
2022-11-29T05:29:04.285Z,92497.84
2022-11-29T05:31:45.911Z,92487.13
2022-11-29T05:34:37.548Z,92492.53
2022-11-29T05:37:39.096Z,92482.28
2022-11-29T05:40:39.247Z,92495.25
2022-11-29T05:43:18.704Z,92492.09
2022-11-29T05:45:57.567Z,92493.69
2022-11-29T05:48:45.216Z,92492.09
2022-11-29T05:51:42.180Z,92501.66
2022-11-29T05:54:27.311Z,92500.44
2022-11-29T05:57:31.249Z,92505.44
2022-11-29T06:00:01.087Z,92507.22
2022-11-29T06:02:27.592Z,92504.19
2022-11-29T06:04:57.178Z,92513.44
2022-11-29T06:07:48.364Z,92506.00
2022-11-29T06:10:19.742Z,92505.63
2022-11-29T06:13:05.643Z,92505.84
2022-11-29T06:15:50.861Z,92509.69
2022-11-29T06:18:28.528Z,92507.84
2022-11-29T06:21:12.536Z,92511.56
2022-11-29T06:24:05.888Z,92512.84
2022-11-29T06:26:41.262Z,92516.03
2022-11-29T06:29:23.680Z,92517.03
2022-11-29T06:32:09.904Z,92512.78
2022-11-29T06:35:05.256Z,92525.50
2022-11-29T06:37:40.509Z,92523.81
2022-11-29T06:40:12.040Z,92522.00
2022-11-29T06:42:38.609Z,92525.72
2022-11-29T06:45:06.109Z,92526.47
2022-11-29T06:48:02.690Z,92526.97
2022-11-29T06:50:47.717Z,92521.91
2022-11-29T06:53:22.586Z,92529.25
2022-11-29T06:56:07.447Z,92527.44
2022-11-29T06:58:52.443Z,92533.09
2022-11-29T07:02:00.309Z,92539.28
2022-11-29T07:04:26.737Z,92533.44
2022-11-29T07:06:53.603Z,92537.75
2022-11-29T07:09:25.504Z,92534.59
2022-11-29T07:11:52.241Z,92534.41
2022-11-29T07:14:18.930Z,92541.28
2022-11-29T07:17:15.299Z,92538.81
2022-11-29T07:20:08.804Z,92539.72
2022-11-29T07:23:14.109Z,92556.81
2022-11-29T07:25:55.946Z,92550.34
2022-11-29T07:28:34.419Z,92552.28
2022-11-29T07:31:27.469Z,92545.41
2022-11-29T07:34:16.472Z,92555.34
2022-11-29T07:36:51.711Z,92548.91
2022-11-29T07:39:24.891Z,92550.06
2022-11-29T07:41:54.310Z,92558.19
2022-11-29T07:44:30.613Z,92559.31
2022-11-29T07:46:57.042Z,92552.66
2022-11-29T07:49:23.476Z,92555.03
2022-11-29T07:51:49.958Z,92554.13
2022-11-29T07:54:18.821Z,92555.81
2022-11-29T07:56:45.664Z,92560.13
2022-11-29T07:59:12.912Z,92559.22
2022-11-29T08:01:39.863Z,92559.00
2022-11-29T08:04:07.844Z,92564.31
2022-11-29T08:06:35.387Z,92563.63
2022-11-29T08:09:02.276Z,92562.72
2022-11-29T08:11:28.724Z,92567.69
2022-11-29T08:13:59.931Z,92562.03
2022-11-29T08:16:26.650Z,92567.56
2022-11-29T08:18:53.164Z,92567.34
2022-11-29T08:21:20.278Z,92571.72
2022-11-29T08:23:48.394Z,92574.13
2022-11-29T08:26:16.064Z,92569.81
2022-11-29T08:28:43.019Z,92571.97
2022-11-29T08:31:11.839Z,92563.94
2022-11-29T08:33:43.200Z,92565.75
2022-11-29T08:36:18.901Z,92570.59
2022-11-29T08:38:46.254Z,92569.69
2022-11-29T08:41:14.574Z,92579.16
2022-11-29T08:43:41.553Z,92585.47
2022-11-29T08:46:08.219Z,92581.84
2022-11-29T08:48:35.669Z,92586.63
2022-11-29T08:51:03.041Z,92595.00
2022-11-29T08:53:41.244Z,92592.94
2022-11-29T08:56:32.181Z,92594.19
2022-11-29T08:58:56.531Z,92587.28
2022-11-29T09:01:23.054Z,92587.63
2022-11-29T09:04:07.000Z,92591.56
2022-11-29T09:06:38.865Z,92590.53
2022-11-29T09:09:05.982Z,92603.53
2022-11-29T09:11:34.455Z,92599.59
2022-11-29T09:14:04.034Z,92598.13
2022-11-29T09:16:34.290Z,92592.56
2022-11-29T09:19:00.861Z,92605.13
2022-11-29T09:21:30.031Z,92604.22
2022-11-29T09:24:01.744Z,92610.75
2022-11-29T09:26:31.169Z,92611.91
2022-11-29T09:29:02.777Z,92609.75
2022-11-29T09:31:31.137Z,92615.75
2022-11-29T09:33:57.656Z,92624.38
2022-11-29T09:36:28.485Z,92618.13
2022-11-29T09:38:56.591Z,92621.03
2022-11-29T09:41:51.937Z,92623.31
2022-11-29T09:44:33.541Z,92619.53
2022-11-29T09:47:19.143Z,92619.28
2022-11-29T09:49:54.691Z,92623.94
2022-11-29T09:52:55.091Z,92621.59
2022-11-29T09:55:24.452Z,92623.38
2022-11-29T09:57:53.479Z,92627.91
2022-11-29T10:00:20.644Z,92634.00
2022-11-29T10:02:58.335Z,92618.06
2022-11-29T10:05:32.504Z,92629.25
2022-11-29T10:08:05.975Z,92638.19
2022-11-29T10:10:43.136Z,92633.34
2022-11-29T10:13:21.369Z,92622.84
2022-11-29T10:15:53.016Z,92626.34
2022-11-29T10:18:24.098Z,92633.34
2022-11-29T10:20:53.640Z,92624.84
2022-11-29T10:23:29.343Z,92630.88
2022-11-29T10:25:57.916Z,92628.13
2022-11-29T10:28:33.476Z,92621.34
2022-11-29T10:31:27.441Z,92625.06
2022-11-29T10:33:55.624Z,92626.63
2022-11-29T10:36:29.608Z,92626.63
2022-11-29T10:39:01.220Z,92624.03
2022-11-29T10:41:28.139Z,92621.53
2022-11-29T10:43:59.706Z,92624.69
2022-11-29T10:46:31.051Z,92618.38
2022-11-29T10:49:07.976Z,92625.88
2022-11-29T10:51:34.933Z,92623.38
2022-11-29T10:54:35.942Z,92624.00
2022-11-29T10:57:08.406Z,92618.19
2022-11-29T10:59:35.079Z,92620.09
2022-11-29T11:02:01.939Z,92623.59
2022-11-29T11:04:31.843Z,92619.72
2022-11-29T11:07:01.397Z,92619.38
2022-11-29T11:09:35.896Z,92615.19
2022-11-29T11:12:16.930Z,92620.41
2022-11-29T11:14:44.718Z,92619.63
2022-11-29T11:17:32.609Z,92617.91
2022-11-29T11:20:19.715Z,92616.50
2022-11-29T11:22:57.944Z,92620.59
2022-11-29T11:25:50.046Z,92615.41
2022-11-29T11:28:23.802Z,92610.03
2022-11-29T11:31:02.808Z,92618.41
2022-11-29T11:33:32.726Z,92619.84
2022-11-29T11:36:24.995Z,92618.56
2022-11-29T11:38:55.916Z,92611.47
2022-11-29T11:41:50.670Z,92616.84
2022-11-29T11:44:52.328Z,92617.16
2022-11-29T11:47:25.689Z,92622.81
2022-11-29T11:50:04.057Z,92621.72
2022-11-29T11:52:41.322Z,92621.25
2022-11-29T11:55:21.464Z,92620.81
2022-11-29T11:58:21.245Z,92619.84
2022-11-29T12:01:04.469Z,92632.00
2022-11-29T12:03:56.515Z,92619.91
2022-11-29T12:06:36.929Z,92627.72
2022-11-29T12:09:11.689Z,92630.47
2022-11-29T12:11:44.100Z,92641.91
2022-11-29T12:14:20.063Z,92640.34
2022-11-29T12:16:49.135Z,92643.97
2022-11-29T12:19:23.725Z,92642.81
2022-11-29T12:21:55.845Z,92637.06
2022-11-29T12:24:28.201Z,92642.44
2022-11-29T12:26:58.921Z,92639.34
2022-11-29T12:29:29.223Z,92648.50
2022-11-29T12:32:01.692Z,92644.31
2022-11-29T12:34:50.674Z,92642.19
2022-11-29T12:37:47.571Z,92650.47
2022-11-29T12:41:02.621Z,92654.31
2022-11-29T12:44:10.381Z,92650.56
2022-11-29T12:46:38.429Z,92652.81
2022-11-29T12:49:18.357Z,92649.66
2022-11-29T12:52:03.547Z,92652.47
2022-11-29T12:54:44.075Z,92652.47
2022-11-29T12:57:25.038Z,92647.59
2022-11-29T13:00:09.041Z,92652.00
2022-11-29T13:03:00.595Z,92648.25
2022-11-29T13:05:51.854Z,92655.38
2022-11-29T13:08:48.676Z,92659.78
2022-11-29T13:11:36.163Z,92653.31
2022-11-29T13:14:41.452Z,92651.41
2022-11-29T13:17:05.405Z,92653.44
2022-11-29T13:19:55.356Z,92653.44
2022-11-29T13:22:52.557Z,92655.50
2022-11-29T13:25:23.559Z,92662.38
2022-11-29T13:28:15.359Z,92661.59
2022-11-29T13:30:42.115Z,92657.63
2022-11-29T13:33:34.424Z,92658.66
2022-11-29T13:36:03.787Z,92656.06
2022-11-29T13:38:39.306Z,92661.81
2022-11-29T13:41:30.901Z,92663.31
2022-11-29T13:44:20.336Z,92664.34
2022-11-29T13:46:54.600Z,92663.75
2022-11-29T13:49:50.012Z,92657.91
2022-11-29T13:52:26.542Z,92666.84
2022-11-29T13:55:14.612Z,92665.03
2022-11-29T14:00:43.791Z,92661.09
2022-11-29T14:03:38.444Z,92668.69
2022-11-29T14:06:10.005Z,92664.56
2022-11-29T14:09:17.393Z,92662.28
2022-11-29T14:11:33.886Z,92674.88
2022-11-29T14:14:08.872Z,92668.06
2022-11-29T14:16:47.653Z,92668.28
2022-11-29T14:19:25.214Z,92667.97
2022-11-29T14:21:55.962Z,92675.31
2022-11-29T14:24:39.488Z,92668.50
2022-11-29T14:27:05.945Z,92668.69
2022-11-29T14:29:47.346Z,92666.84
2022-11-29T14:32:32.059Z,92673.09
2022-11-29T14:35:10.657Z,92678.22
2022-11-29T14:37:43.866Z,92674.34
2022-11-29T14:40:26.248Z,92675.91
2022-11-29T14:42:53.505Z,92677.41
2022-11-29T14:45:24.760Z,92682.53
2022-11-29T14:47:51.194Z,92683.44
2022-11-29T14:50:40.144Z,92682.53
2022-11-29T14:53:27.465Z,92684.25
2022-11-29T14:56:28.796Z,92682.34
2022-11-29T14:59:32.810Z,92695.59
2022-11-29T15:02:17.502Z,92694.03
2022-11-29T15:04:44.974Z,92692.66
2022-11-29T15:07:18.568Z,92696.84
2022-11-29T15:09:50.068Z,92701.75
2022-11-29T15:12:26.726Z,92695.72
2022-11-29T15:15:06.223Z,92694.25
2022-11-29T15:17:48.950Z,92698.44
2022-11-29T15:20:42.974Z,92708.06
2022-11-29T15:23:15.114Z,92699.69
2022-11-29T15:25:50.003Z,92704.09
2022-11-29T15:28:28.230Z,92708.53
2022-11-29T15:31:05.090Z,92700.47
2022-11-29T15:33:34.391Z,92711.25
2022-11-29T15:36:06.915Z,92708.84
2022-11-29T15:38:43.429Z,92712.25
2022-11-29T15:41:29.972Z,92709.88
2022-11-29T15:43:59.361Z,92718.50
2022-11-29T15:46:31.849Z,92713.97
2022-11-29T15:49:18.204Z,92719.66
2022-11-29T15:51:49.575Z,92717.03
2022-11-29T15:54:42.226Z,92718.16
2022-11-29T15:57:38.319Z,92727.34
2022-11-29T16:00:15.673Z,92725.75
2022-11-29T16:02:53.633Z,92728.13
2022-11-29T16:05:27.700Z,92736.50
2022-11-29T16:07:58.269Z,92746.34
2022-11-29T16:10:34.960Z,92740.38
2022-11-29T16:13:24.732Z,92737.75
2022-11-29T16:16:04.834Z,92738.78
2022-11-29T16:18:31.652Z,92735.72
2022-11-29T16:21:03.556Z,92736.75
2022-11-29T16:23:38.301Z,92740.13
2022-11-29T16:26:04.644Z,92738.31
2022-11-29T16:28:34.561Z,92731.53
2022-11-29T16:31:01.269Z,92742.50
2022-11-29T16:33:28.012Z,92744.88
2022-11-29T16:36:15.761Z,92746.91
2022-11-29T16:38:54.343Z,92743.53
2022-11-29T16:41:35.285Z,92745.78
2022-11-29T16:44:03.509Z,92748.97
2022-11-29T16:46:38.665Z,92747.31
2022-11-29T16:49:32.603Z,92748.41
2022-11-29T16:51:59.448Z,92751.59
2022-11-29T16:54:28.634Z,92749.53
2022-11-29T16:56:57.110Z,92753.63
2022-11-29T16:59:28.037Z,92757.47
2022-11-29T17:01:58.072Z,92755.69
2022-11-29T17:04:25.550Z,92761.09
2022-11-29T17:06:54.110Z,92755.44
2022-11-29T17:09:31.520Z,92755.13
2022-11-29T17:12:01.644Z,92755.44
2022-11-29T17:14:29.385Z,92762.81
2022-11-29T17:16:55.949Z,92761.22
2022-11-29T17:19:23.722Z,92762.38
2022-11-29T17:21:51.711Z,92762.13
2022-11-29T17:24:20.995Z,92758.59
2022-11-29T17:26:47.426Z,92760.09
2022-11-29T17:29:15.855Z,92760.09
2022-11-29T17:31:46.419Z,92765.75
2022-11-29T17:34:13.292Z,92765.19
2022-11-29T17:36:40.429Z,92764.75
2022-11-29T17:39:07.187Z,92768.94
2022-11-29T17:41:33.841Z,92770.16
2022-11-29T17:44:00.815Z,92771.75
2022-11-29T17:46:32.690Z,92772.00
2022-11-29T17:49:00.968Z,92775.50
2022-11-29T17:54:14.652Z,92780.81
2022-11-29T17:56:41.106Z,92782.50
2022-11-29T17:59:07.606Z,92777.88
2022-11-29T18:01:35.935Z,92781.72
2022-11-29T18:04:05.126Z,92785.69
2022-11-29T18:06:35.908Z,92785.25
2022-11-29T18:09:04.145Z,92781.84
2022-11-29T18:11:46.824Z,92789.88
2022-11-29T18:14:16.631Z,92794.06
2022-11-29T18:16:45.433Z,92800.72
2022-11-29T18:19:14.934Z,92794.66
2022-11-29T18:21:41.371Z,92792.16
2022-11-29T18:24:08.310Z,92790.09
2022-11-29T18:26:36.484Z,92795.88
2022-11-29T18:29:03.849Z,92794.75
2022-11-29T18:31:33.279Z,92804.16
2022-11-29T18:34:02.010Z,92796.13
2022-11-29T18:36:31.329Z,92794.63
2022-11-29T18:39:07.352Z,92797.44
2022-11-29T18:41:34.276Z,92800.63
2022-11-29T18:44:03.911Z,92796.44
2022-11-29T18:46:32.668Z,92798.00
2022-11-29T18:49:00.947Z,92805.63
2022-11-29T18:51:29.100Z,92805.16
2022-11-29T18:53:56.215Z,92810.38
2022-11-29T18:56:24.398Z,92799.13
2022-11-29T18:58:58.670Z,92807.97
2022-11-29T19:01:27.717Z,92815.00
2022-11-29T19:03:57.251Z,92809.56
2022-11-29T19:06:38.885Z,92805.84
2022-11-29T19:09:07.933Z,92806.53
2022-11-29T19:11:34.871Z,92809.13
2022-11-29T19:14:03.961Z,92810.47
2022-11-29T19:16:33.413Z,92808.91
2022-11-29T19:19:01.019Z,92808.91
2022-11-29T19:21:29.857Z,92805.16
2022-11-29T19:23:58.733Z,92812.97
2022-11-29T19:26:27.163Z,92808.13
2022-11-29T19:28:54.060Z,92809.69
2022-11-29T19:31:24.984Z,92809.34
2022-11-29T19:33:52.659Z,92810.72
2022-11-29T19:36:27.553Z,92808.22
2022-11-29T19:38:54.635Z,92810.47
2022-11-29T19:41:23.489Z,92807.97
2022-11-29T19:43:50.542Z,92816.81
2022-11-29T19:46:19.859Z,92813.75
2022-11-29T19:48:46.633Z,92815.03
2022-11-29T19:51:16.468Z,92812.41
2022-11-29T19:53:43.685Z,92809.34
2022-11-29T19:56:13.294Z,92812.75
2022-11-29T19:58:40.046Z,92815.91
2022-11-29T20:01:12.159Z,92819.44
2022-11-29T20:03:39.661Z,92809.34
2022-11-29T20:06:07.533Z,92818.41
2022-11-29T20:08:34.671Z,92825.09
2022-11-29T20:11:10.942Z,92824.53
2022-11-29T20:13:39.219Z,92821.56
2022-11-29T20:16:09.825Z,92818.50
2022-11-29T20:18:39.267Z,92827.25
2022-11-29T20:21:08.921Z,92822.28
2022-11-29T20:23:35.599Z,92828.16
2022-11-29T20:26:02.238Z,92830.28
2022-11-29T20:28:29.259Z,92825.19
2022-11-29T20:30:56.680Z,92831.78
2022-11-29T20:33:25.366Z,92828.16
2022-11-29T20:36:04.564Z,92833.16
2022-11-29T20:38:37.325Z,92838.13
2022-11-29T20:41:19.538Z,92834.94
2022-11-29T20:43:59.886Z,92838.13
2022-11-29T20:46:27.217Z,92842.88
2022-11-29T20:48:54.889Z,92839.47
2022-11-29T20:51:28.529Z,92845.03
2022-11-29T20:53:55.178Z,92841.63
2022-11-29T20:56:21.778Z,92842.44
2022-11-29T20:58:48.369Z,92849.00
2022-11-29T21:01:15.721Z,92845.91
2022-11-29T21:03:42.519Z,92842.31
2022-11-29T21:06:09.160Z,92845.72
2022-11-29T21:08:35.799Z,92840.50
2022-11-29T21:11:07.452Z,92836.41
2022-11-29T21:13:34.528Z,92842.66
2022-11-29T21:16:01.735Z,92835.50
2022-11-29T21:18:29.723Z,92839.69
2022-11-29T21:21:22.778Z,92833.47
2022-11-29T21:24:07.663Z,92834.03
2022-11-29T21:26:48.109Z,92830.19
2022-11-29T21:29:23.349Z,92840.41
2022-11-29T21:31:52.756Z,92838.13
2022-11-29T21:34:20.737Z,92832.34
2022-11-29T21:36:56.417Z,92839.47
2022-11-29T21:39:27.288Z,92838.78
2022-11-29T21:41:53.700Z,92845.00
2022-11-29T21:44:20.576Z,92840.50
2022-11-29T21:46:47.383Z,92844.25
2022-11-29T21:49:14.044Z,92845.81
2022-11-29T21:51:40.783Z,92845.47
2022-11-29T21:54:07.232Z,92845.47
2022-11-29T21:56:33.896Z,92845.38
2022-11-29T21:59:00.507Z,92841.06
2022-11-29T22:01:27.757Z,92848.53
2022-11-29T22:03:54.888Z,92844.13
2022-11-29T22:06:24.377Z,92843.13
2022-11-29T22:08:51.035Z,92848.31
2022-11-29T22:11:34.370Z,92844.25
2022-11-29T22:14:17.420Z,92845.59
2022-11-29T22:16:54.252Z,92852.16
2022-11-29T22:19:25.415Z,92852.97
2022-11-29T22:21:57.127Z,92849.34
2022-11-29T22:24:26.319Z,92848.78
2022-11-29T22:26:54.270Z,92847.97
2022-11-29T22:29:22.073Z,92847.50
2022-11-29T22:31:51.814Z,92849.34
2022-11-29T22:34:19.613Z,92851.69
2022-11-29T22:36:46.540Z,92853.28
2022-11-29T22:39:13.167Z,92844.91
2022-11-29T22:41:40.984Z,92853.19
2022-11-29T22:44:07.439Z,92851.03
2022-11-29T22:46:39.722Z,92846.38
2022-11-29T22:49:06.416Z,92844.81
2022-11-29T22:51:35.703Z,92848.19
2022-11-29T22:54:05.370Z,92841.75
2022-11-29T22:56:35.890Z,92852.38
2022-11-29T22:59:02.979Z,92850.78
2022-11-29T23:01:32.027Z,92847.50
2022-11-29T23:04:01.176Z,92842.09
2022-11-29T23:06:32.732Z,92851.47
2022-11-29T23:09:04.482Z,92849.75
2022-11-29T23:11:31.262Z,92848.84
2022-11-29T23:13:57.712Z,92842.66
2022-11-29T23:16:28.126Z,92850.78
2022-11-29T23:18:58.261Z,92853.94
2022-11-29T23:21:38.890Z,92848.06
2022-11-29T23:24:05.487Z,92845.00
2022-11-29T23:26:36.592Z,92852.50
2022-11-29T23:29:04.448Z,92842.09
2022-11-29T23:31:31.628Z,92849.75
2022-11-29T23:33:58.733Z,92850.69
2022-11-29T23:36:25.795Z,92851.25
2022-11-29T23:38:52.670Z,92850.22
2022-11-29T23:41:19.193Z,92846.50
2022-11-29T23:43:45.717Z,92847.06
2022-11-29T23:46:15.201Z,92850.69
2022-11-29T23:48:42.011Z,92843.88
2022-11-29T23:51:08.977Z,92845.34
2022-11-29T23:53:35.561Z,92848.97
2022-11-29T23:56:04.978Z,92844.66
2022-11-29T23:58:32.810Z,92847.84
